Aviation Digital Data Service (ADDS)

Output produced by METARs form (0827 UTC 27 February 2020)
found at http://www.aviationweather.gov/metar/data/
 
METAR text: EDDH 270820Z 24008KT 210V270 9999 FEW009 BKN011 03/01 Q1000 BECMG SCT015
Conditions at: EDDH (HAMBURG/FUHLSBUT, DE) observed 0820 UTC 27 February 2020
Temperature: 3.0°C (37°F)
Dewpoint: 1.0°C (34°F) [RH = 87%]
Pressure (altimeter): 29.53 inches Hg (1000.0 mb)
Winds: from the WSW (240 degrees) at 9 MPH (8 knots; 4.1 m/s)
Visibility: 6 or more miles (10+ km)
Ceiling: 1100 feet AGL
Clouds: few clouds at 900 feet AGL
broken clouds at 1100 feet AGL
Weather: no significant weather observed at this time

METAR text: EDDH 270750Z 24006KT 210V280 9999 FEW009 BKN012 03/01 Q1000 BECMG SCT015
Conditions at: EDDH (HAMBURG/FUHLSBUT, DE) observed 0750 UTC 27 February 2020
Temperature: 3.0°C (37°F)
Dewpoint: 1.0°C (34°F) [RH = 87%]
Pressure (altimeter): 29.53 inches Hg (1000.0 mb)
Winds: from the WSW (240 degrees) at 7 MPH (6 knots; 3.1 m/s)
Visibility: 6 or more miles (10+ km)
Ceiling: 1200 feet AGL
Clouds: few clouds at 900 feet AGL
broken clouds at 1200 feet AGL
Weather: no significant weather observed at this time

METAR text: EDDH 270720Z 23008KT 210V270 9999 BKN008 BKN012 03/01 Q1000 BECMG BKN012
Conditions at: EDDH (HAMBURG/FUHLSBUT, DE) observed 0720 UTC 27 February 2020
Temperature: 3.0°C (37°F)
Dewpoint: 1.0°C (34°F) [RH = 87%]
Pressure (altimeter): 29.53 inches Hg (1000.0 mb)
Winds: from the SW (230 degrees) at 9 MPH (8 knots; 4.1 m/s)
Visibility: 6 or more miles (10+ km)
Ceiling: 800 feet AGL
Clouds: broken clouds at 800 feet AGL
broken clouds at 1200 feet AGL
Weather: no significant weather observed at this time

METAR text: EDDH 270650Z 24007KT 210V270 9999 BKN009 03/01 Q1000 BECMG BKN012
Conditions at: EDDH (HAMBURG/FUHLSBUT, DE) observed 0650 UTC 27 February 2020
Temperature: 3.0°C (37°F)
Dewpoint: 1.0°C (34°F) [RH = 87%]
Pressure (altimeter): 29.53 inches Hg (1000.0 mb)
Winds: from the WSW (240 degrees) at 8 MPH (7 knots; 3.6 m/s)
Visibility: 6 or more miles (10+ km)
Ceiling: 900 feet AGL
Clouds: broken clouds at 900 feet AGL
Weather: no significant weather observed at this time

METAR text: EDDH 270620Z 24009KT 9999 BKN008 03/01 Q1000 NOSIG
Conditions at: EDDH (HAMBURG/FUHLSBUT, DE) observed 0620 UTC 27 February 2020
Temperature: 3.0°C (37°F)
Dewpoint: 1.0°C (34°F) [RH = 87%]
Pressure (altimeter): 29.53 inches Hg (1000.0 mb)
Winds: from the WSW (240 degrees) at 10 MPH (9 knots; 4.6 m/s)
Visibility: 6 or more miles (10+ km)
Ceiling: 800 feet AGL
Clouds: broken clouds at 800 feet AGL
Weather: no significant weather observed at this time

METAR text: EDDH 270550Z 24008KT 9999 FEW007 BKN008 03/01 Q1000 NOSIG
Conditions at: EDDH (HAMBURG/FUHLSBUT, DE) observed 0550 UTC 27 February 2020
Temperature: 3.0°C (37°F)
Dewpoint: 1.0°C (34°F) [RH = 87%]
Pressure (altimeter): 29.53 inches Hg (1000.0 mb)
Winds: from the WSW (240 degrees) at 9 MPH (8 knots; 4.1 m/s)
Visibility: 6 or more miles (10+ km)
Ceiling: 800 feet AGL
Clouds: few clouds at 700 feet AGL
broken clouds at 800 feet AGL
Weather: no significant weather observed at this time

METAR text: EDDH 270520Z 24007KT 9999 FEW007 BKN008 03/01 Q1001 NOSIG
Conditions at: EDDH (HAMBURG/FUHLSBUT, DE) observed 0520 UTC 27 February 2020
Temperature: 3.0°C (37°F)
Dewpoint: 1.0°C (34°F) [RH = 87%]
Pressure (altimeter): 29.56 inches Hg (1001.0 mb)
Winds: from the WSW (240 degrees) at 8 MPH (7 knots; 3.6 m/s)
Visibility: 6 or more miles (10+ km)
Ceiling: 800 feet AGL
Clouds: few clouds at 700 feet AGL
broken clouds at 800 feet AGL
Weather: no significant weather observed at this time

METAR text: EDDH 270450Z 23009KT 210V270 9999 FEW007 BKN008 03/01 Q1001 NOSIG
Conditions at: EDDH (HAMBURG/FUHLSBUT, DE) observed 0450 UTC 27 February 2020
Temperature: 3.0°C (37°F)
Dewpoint: 1.0°C (34°F) [RH = 87%]
Pressure (altimeter): 29.56 inches Hg (1001.0 mb)
Winds: from the SW (230 degrees) at 10 MPH (9 knots; 4.6 m/s)
Visibility: 6 or more miles (10+ km)
Ceiling: 800 feet AGL
Clouds: few clouds at 700 feet AGL
broken clouds at 800 feet AGL
Weather: no significant weather observed at this time

METAR text: EDDH 270420Z 26007KT 220V280 9999 -DZ FEW007 BKN009 03/01 Q1001 NOSIG
Conditions at: EDDH (HAMBURG/FUHLSBUT, DE) observed 0420 UTC 27 February 2020
Temperature: 3.0°C (37°F)
Dewpoint: 1.0°C (34°F) [RH = 87%]
Pressure (altimeter): 29.56 inches Hg (1001.0 mb)
Winds: from the W (260 degrees) at 8 MPH (7 knots; 3.6 m/s)
Visibility: 6 or more miles (10+ km)
Ceiling: 900 feet AGL
Clouds: few clouds at 700 feet AGL
broken clouds at 900 feet AGL
Weather: -DZ  (light drizzle)

METAR text: EDDH 270350Z 25009KT 220V280 9999 FEW007 BKN008 03/01 Q1001 NOSIG
Conditions at: EDDH (HAMBURG/FUHLSBUT, DE) observed 0350 UTC 27 February 2020
Temperature: 3.0°C (37°F)
Dewpoint: 1.0°C (34°F) [RH = 87%]
Pressure (altimeter): 29.56 inches Hg (1001.0 mb)
Winds: from the WSW (250 degrees) at 10 MPH (9 knots; 4.6 m/s)
Visibility: 6 or more miles (10+ km)
Ceiling: 800 feet AGL
Clouds: few clouds at 700 feet AGL
broken clouds at 800 feet AGL
Weather: no significant weather observed at this time

METAR text: EDDH 270320Z 25006KT 220V280 9999 -DZ FEW006 BKN008 02/01 Q1001 NOSIG
Conditions at: EDDH (HAMBURG/FUHLSBUT, DE) observed 0320 UTC 27 February 2020
Temperature: 2.0°C (36°F)
Dewpoint: 1.0°C (34°F) [RH = 93%]
Pressure (altimeter): 29.56 inches Hg (1001.0 mb)
Winds: from the WSW (250 degrees) at 7 MPH (6 knots; 3.1 m/s)
Visibility: 6 or more miles (10+ km)
Ceiling: 800 feet AGL
Clouds: few clouds at 600 feet AGL
broken clouds at 800 feet AGL
Weather: -DZ  (light drizzle)

METAR text: EDDH 270250Z 24008KT 9999 BKN007 02/01 Q1001 NOSIG
Conditions at: EDDH (HAMBURG/FUHLSBUT, DE) observed 0250 UTC 27 February 2020
Temperature: 2.0°C (36°F)
Dewpoint: 1.0°C (34°F) [RH = 93%]
Pressure (altimeter): 29.56 inches Hg (1001.0 mb)
Winds: from the WSW (240 degrees) at 9 MPH (8 knots; 4.1 m/s)
Visibility: 6 or more miles (10+ km)
Ceiling: 700 feet AGL
Clouds: broken clouds at 700 feet AGL
Weather: no significant weather observed at this time

METAR text: EDDH 270220Z 24008KT 9999 BKN007 02/01 Q1001 NOSIG
Conditions at: EDDH (HAMBURG/FUHLSBUT, DE) observed 0220 UTC 27 February 2020
Temperature: 2.0°C (36°F)
Dewpoint: 1.0°C (34°F) [RH = 93%]
Pressure (altimeter): 29.56 inches Hg (1001.0 mb)
Winds: from the WSW (240 degrees) at 9 MPH (8 knots; 4.1 m/s)
Visibility: 6 or more miles (10+ km)
Ceiling: 700 feet AGL
Clouds: broken clouds at 700 feet AGL
Weather: no significant weather observed at this time

METAR text: EDDH 270150Z 25007KT 220V280 9999 BKN007 02/01 Q1001 TEMPO SCT007
Conditions at: EDDH (HAMBURG/FUHLSBUT, DE) observed 0150 UTC 27 February 2020
Temperature: 2.0°C (36°F)
Dewpoint: 1.0°C (34°F) [RH = 93%]
Pressure (altimeter): 29.56 inches Hg (1001.0 mb)
Winds: from the WSW (250 degrees) at 8 MPH (7 knots; 3.6 m/s)
Visibility: 6 or more miles (10+ km)
Ceiling: 700 feet AGL
Clouds: broken clouds at 700 feet AGL
Weather: no significant weather observed at this time

METAR text: EDDH 270120Z 25006KT 220V280 9999 BKN007 03/01 Q1001 TEMPO SCT007
Conditions at: EDDH (HAMBURG/FUHLSBUT, DE) observed 0120 UTC 27 February 2020
Temperature: 3.0°C (37°F)
Dewpoint: 1.0°C (34°F) [RH = 87%]
Pressure (altimeter): 29.56 inches Hg (1001.0 mb)
Winds: from the WSW (250 degrees) at 7 MPH (6 knots; 3.1 m/s)
Visibility: 6 or more miles (10+ km)
Ceiling: 700 feet AGL
Clouds: broken clouds at 700 feet AGL
Weather: no significant weather observed at this time

METAR text: EDDH 270050Z 24008KT 9999 FEW006 BKN007 02/01 Q1001 TEMPO SCT007
Conditions at: EDDH (HAMBURG/FUHLSBUT, DE) observed 0050 UTC 27 February 2020
Temperature: 2.0°C (36°F)
Dewpoint: 1.0°C (34°F) [RH = 93%]
Pressure (altimeter): 29.56 inches Hg (1001.0 mb)
Winds: from the WSW (240 degrees) at 9 MPH (8 knots; 4.1 m/s)
Visibility: 6 or more miles (10+ km)
Ceiling: 700 feet AGL
Clouds: few clouds at 600 feet AGL
broken clouds at 700 feet AGL
Weather: no significant weather observed at this time

METAR text: EDDH 270020Z 24006KT 220V290 9999 BKN007 02/01 Q1001 TEMPO SCT007
Conditions at: EDDH (HAMBURG/FUHLSBUT, DE) observed 0020 UTC 27 February 2020
Temperature: 2.0°C (36°F)
Dewpoint: 1.0°C (34°F) [RH = 93%]
Pressure (altimeter): 29.56 inches Hg (1001.0 mb)
Winds: from the WSW (240 degrees) at 7 MPH (6 knots; 3.1 m/s)
Visibility: 6 or more miles (10+ km)
Ceiling: 700 feet AGL
Clouds: broken clouds at 700 feet AGL
Weather: no significant weather observed at this time

METAR text: EDDH 262350Z 23006KT 9999 FEW007 BKN030 02/01 Q1001 NOSIG
Conditions at: EDDH (HAMBURG/FUHLSBUT, DE) observed 2350 UTC 26 February 2020
Temperature: 2.0°C (36°F)
Dewpoint: 1.0°C (34°F) [RH = 93%]
Pressure (altimeter): 29.56 inches Hg (1001.0 mb)
Winds: from the SW (230 degrees) at 7 MPH (6 knots; 3.1 m/s)
Visibility: 6 or more miles (10+ km)
Ceiling: 3000 feet AGL
Clouds: few clouds at 700 feet AGL
broken clouds at 3000 feet AGL
Weather: no significant weather observed at this time

METAR text: EDDH 262320Z 26004KT 220V280 9999 BKN032 02/01 Q1000 NOSIG
Conditions at: EDDH (HAMBURG/FUHLSBUT, DE) observed 2320 UTC 26 February 2020
Temperature: 2.0°C (36°F)
Dewpoint: 1.0°C (34°F) [RH = 93%]
Pressure (altimeter): 29.53 inches Hg (1000.0 mb)
Winds: from the W (260 degrees) at 5 MPH (4 knots; 2.1 m/s)
Visibility: 6 or more miles (10+ km)
Ceiling: 3200 feet AGL
Clouds: broken clouds at 3200 feet AGL
Weather: no significant weather observed at this time

METAR text: EDDH 262250Z 25004KT 9999 BKN032 02/00 Q1000 NOSIG
Conditions at: EDDH (HAMBURG/FUHLSBUT, DE) observed 2250 UTC 26 February 2020
Temperature: 2.0°C (36°F)
Dewpoint: 0.0°C (32°F) [RH = 87%]
Pressure (altimeter): 29.53 inches Hg (1000.0 mb)
Winds: from the WSW (250 degrees) at 5 MPH (4 knots; 2.1 m/s)
Visibility: 6 or more miles (10+ km)
Ceiling: 3200 feet AGL
Clouds: broken clouds at 3200 feet AGL
Weather: no significant weather observed at this time

METAR text: EDDH 262220Z 25003KT 9999 BKN031 02/00 Q1000 NOSIG
Conditions at: EDDH (HAMBURG/FUHLSBUT, DE) observed 2220 UTC 26 February 2020
Temperature: 2.0°C (36°F)
Dewpoint: 0.0°C (32°F) [RH = 87%]
Pressure (altimeter): 29.53 inches Hg (1000.0 mb)
Winds: from the WSW (250 degrees) at 3 MPH (3 knots; 1.5 m/s)
Visibility: 6 or more miles (10+ km)
Ceiling: 3100 feet AGL
Clouds: broken clouds at 3100 feet AGL
Weather: no significant weather observed at this time

METAR text: EDDH 262150Z 27004KT 9999 BKN031 02/00 Q1000 NOSIG
Conditions at: EDDH (HAMBURG/FUHLSBUT, DE) observed 2150 UTC 26 February 2020
Temperature: 2.0°C (36°F)
Dewpoint: 0.0°C (32°F) [RH = 87%]
Pressure (altimeter): 29.53 inches Hg (1000.0 mb)
Winds: from the W (270 degrees) at 5 MPH (4 knots; 2.1 m/s)
Visibility: 6 or more miles (10+ km)
Ceiling: 3100 feet AGL
Clouds: broken clouds at 3100 feet AGL
Weather: no significant weather observed at this time

METAR text: EDDH 262120Z 26004KT 9999 BKN030 02/M00 Q1000 NOSIG
Conditions at: EDDH (HAMBURG/FUHLSBUT, DE) observed 2120 UTC 26 February 2020
Temperature: 2.0°C (36°F)
Dewpoint: 0.0°C (32°F) [RH = 87%]
Pressure (altimeter): 29.53 inches Hg (1000.0 mb)
Winds: from the W (260 degrees) at 5 MPH (4 knots; 2.1 m/s)
Visibility: 6 or more miles (10+ km)
Ceiling: 3000 feet AGL
Clouds: broken clouds at 3000 feet AGL
Weather: no significant weather observed at this time

METAR text: EDDH 262050Z 26004KT 9999 FEW031 02/M01 Q1000 NOSIG
Conditions at: EDDH (HAMBURG/FUHLSBUT, DE) observed 2050 UTC 26 February 2020
Temperature: 2.0°C (36°F)
Dewpoint: -1.0°C (30°F) [RH = 80%]
Pressure (altimeter): 29.53 inches Hg (1000.0 mb)
Winds: from the W (260 degrees) at 5 MPH (4 knots; 2.1 m/s)
Visibility: 6 or more miles (10+ km)
Ceiling: at least 12,000 feet AGL
Clouds: few clouds at 3100 feet AGL
Weather: no significant weather observed at this time

METAR text: EDDH 262020Z 26004KT 9999 FEW031 02/M01 Q0999 NOSIG
Conditions at: EDDH (HAMBURG/FUHLSBUT, DE) observed 2020 UTC 26 February 2020
Temperature: 2.0°C (36°F)
Dewpoint: -1.0°C (30°F) [RH = 80%]
Pressure (altimeter): 29.50 inches Hg (999.0 mb)
Winds: from the W (260 degrees) at 5 MPH (4 knots; 2.1 m/s)
Visibility: 6 or more miles (10+ km)
Ceiling: at least 12,000 feet AGL
Clouds: few clouds at 3100 feet AGL
Weather: no significant weather observed at this time

METAR text: EDDH 261950Z 28006KT 9999 FEW032 03/M00 Q0999 NOSIG
Conditions at: EDDH (HAMBURG/FUHLSBUT, DE) observed 1950 UTC 26 February 2020
Temperature: 3.0°C (37°F)
Dewpoint: 0.0°C (32°F) [RH = 81%]
Pressure (altimeter): 29.50 inches Hg (999.0 mb)
Winds: from the W (280 degrees) at 7 MPH (6 knots; 3.1 m/s)
Visibility: 6 or more miles (10+ km)
Ceiling: at least 12,000 feet AGL
Clouds: few clouds at 3200 feet AGL
Weather: no significant weather observed at this time

METAR text: EDDH 261920Z 27006KT 9999 SCT034 BKN040 03/M00 Q0999 NOSIG
Conditions at: EDDH (HAMBURG/FUHLSBUT, DE) observed 1920 UTC 26 February 2020
Temperature: 3.0°C (37°F)
Dewpoint: 0.0°C (32°F) [RH = 81%]
Pressure (altimeter): 29.50 inches Hg (999.0 mb)
Winds: from the W (270 degrees) at 7 MPH (6 knots; 3.1 m/s)
Visibility: 6 or more miles (10+ km)
Ceiling: 4000 feet AGL
Clouds: scattered clouds at 3400 feet AGL
broken clouds at 4000 feet AGL
Weather: no significant weather observed at this time

METAR text: EDDH 261850Z 27006KT 9999 BKN040 03/M00 Q0999 NOSIG
Conditions at: EDDH (HAMBURG/FUHLSBUT, DE) observed 1850 UTC 26 February 2020
Temperature: 3.0°C (37°F)
Dewpoint: 0.0°C (32°F) [RH = 81%]
Pressure (altimeter): 29.50 inches Hg (999.0 mb)
Winds: from the W (270 degrees) at 7 MPH (6 knots; 3.1 m/s)
Visibility: 6 or more miles (10+ km)
Ceiling: 4000 feet AGL
Clouds: broken clouds at 4000 feet AGL
Weather: no significant weather observed at this time

METAR text: EDDH 261820Z 29005KT 9999 FEW040 03/M00 Q0998 NOSIG
Conditions at: EDDH (HAMBURG/FUHLSBUT, DE) observed 1820 UTC 26 February 2020
Temperature: 3.0°C (37°F)
Dewpoint: 0.0°C (32°F) [RH = 81%]
Pressure (altimeter): 29.47 inches Hg (998.0 mb)
Winds: from the WNW (290 degrees) at 6 MPH (5 knots; 2.6 m/s)
Visibility: 6 or more miles (10+ km)
Ceiling: at least 12,000 feet AGL
Clouds: few clouds at 4000 feet AGL
Weather: no significant weather observed at this time

METAR text: EDDH 261750Z 29005KT 9999 FEW015 FEW020CB 03/00 Q0998 NOSIG
Conditions at: EDDH (HAMBURG/FUHLSBUT, DE) observed 1750 UTC 26 February 2020
Temperature: 3.0°C (37°F)
Dewpoint: 0.0°C (32°F) [RH = 81%]
Pressure (altimeter): 29.47 inches Hg (998.0 mb)
Winds: from the WNW (290 degrees) at 6 MPH (5 knots; 2.6 m/s)
Visibility: 6 or more miles (10+ km)
Ceiling: at least 12,000 feet AGL
Clouds: few clouds at 1500 feet AGL
few clouds at 2000 feet AGL
Weather: no significant weather observed at this time

METAR text: EDDH 261720Z 29010KT 9999 -SHRA FEW013 FEW020CB SCT040 04/01 Q0997 NOSIG
Conditions at: EDDH (HAMBURG/FUHLSBUT, DE) observed 1720 UTC 26 February 2020
Temperature: 4.0°C (39°F)
Dewpoint: 1.0°C (34°F) [RH = 81%]
Pressure (altimeter): 29.44 inches Hg (997.0 mb)
Winds: from the WNW (290 degrees) at 12 MPH (10 knots; 5.1 m/s)
Visibility: 6 or more miles (10+ km)
Ceiling: at least 12,000 feet AGL
Clouds: few clouds at 1300 feet AGL
few clouds at 2000 feet AGL
scattered clouds at 4000 feet AGL
Weather: -SHRA  (light rain showers)

METAR text: EDDH 261650Z 28011KT 9999 VCSH FEW013 FEW020CB SCT040 05/M00 Q0996 NOSIG
Conditions at: EDDH (HAMBURG/FUHLSBUT, DE) observed 1650 UTC 26 February 2020
Temperature: 5.0°C (41°F)
Dewpoint: 0.0°C (32°F) [RH = 70%]
Pressure (altimeter): 29.41 inches Hg (996.0 mb)
Winds: from the W (280 degrees) at 13 MPH (11 knots; 5.7 m/s)
Visibility: 6 or more miles (10+ km)
Ceiling: at least 12,000 feet AGL
Clouds: few clouds at 1300 feet AGL
few clouds at 2000 feet AGL
scattered clouds at 4000 feet AGL
Weather: VCSH  (showers in vicinity)

METAR text: EDDH 261620Z 28010KT 9999 VCSH FEW013 FEW020CB SCT040 05/M00 Q0996 NOSIG
Conditions at: EDDH (HAMBURG/FUHLSBUT, DE) observed 1620 UTC 26 February 2020
Temperature: 5.0°C (41°F)
Dewpoint: 0.0°C (32°F) [RH = 70%]
Pressure (altimeter): 29.41 inches Hg (996.0 mb)
Winds: from the W (280 degrees) at 12 MPH (10 knots; 5.1 m/s)
Visibility: 6 or more miles (10+ km)
Ceiling: at least 12,000 feet AGL
Clouds: few clouds at 1300 feet AGL
few clouds at 2000 feet AGL
scattered clouds at 4000 feet AGL
Weather: VCSH  (showers in vicinity)

METAR text: EDDH 261550Z 28012KT 9999 VCSH FEW013 FEW020CB SCT030 05/M00 Q0996 NOSIG
Conditions at: EDDH (HAMBURG/FUHLSBUT, DE) observed 1550 UTC 26 February 2020
Temperature: 5.0°C (41°F)
Dewpoint: 0.0°C (32°F) [RH = 70%]
Pressure (altimeter): 29.41 inches Hg (996.0 mb)
Winds: from the W (280 degrees) at 14 MPH (12 knots; 6.2 m/s)
Visibility: 6 or more miles (10+ km)
Ceiling: at least 12,000 feet AGL
Clouds: few clouds at 1300 feet AGL
few clouds at 2000 feet AGL
scattered clouds at 3000 feet AGL
Weather: VCSH  (showers in vicinity)

METAR text: EDDH 261520Z 28013KT 9999 VCSH FEW013 FEW020CB 06/M00 Q0995 NOSIG
Conditions at: EDDH (HAMBURG/FUHLSBUT, DE) observed 1520 UTC 26 February 2020
Temperature: 6.0°C (43°F)
Dewpoint: 0.0°C (32°F) [RH = 65%]
Pressure (altimeter): 29.38 inches Hg (995.0 mb)
Winds: from the W (280 degrees) at 15 MPH (13 knots; 6.7 m/s)
Visibility: 6 or more miles (10+ km)
Ceiling: at least 12,000 feet AGL
Clouds: few clouds at 1300 feet AGL
few clouds at 2000 feet AGL
Weather: VCSH  (showers in vicinity)

METAR text: EDDH 261450Z 28010KT 9999 VCSH FEW013 FEW020CB 06/00 Q0994 NOSIG
Conditions at: EDDH (HAMBURG/FUHLSBUT, DE) observed 1450 UTC 26 February 2020
Temperature: 6.0°C (43°F)
Dewpoint: 0.0°C (32°F) [RH = 65%]
Pressure (altimeter): 29.35 inches Hg (994.0 mb)
Winds: from the W (280 degrees) at 12 MPH (10 knots; 5.1 m/s)
Visibility: 6 or more miles (10+ km)
Ceiling: at least 12,000 feet AGL
Clouds: few clouds at 1300 feet AGL
few clouds at 2000 feet AGL
Weather: VCSH  (showers in vicinity)

METAR text: EDDH 261420Z 29011KT 250V310 9999 VCSH FEW013 FEW020CB 06/00 Q0994 TEMPO SHRAGS
Conditions at: EDDH (HAMBURG/FUHLSBUT, DE) observed 1420 UTC 26 February 2020
Temperature: 6.0°C (43°F)
Dewpoint: 0.0°C (32°F) [RH = 65%]
Pressure (altimeter): 29.35 inches Hg (994.0 mb)
Winds: from the WNW (290 degrees) at 13 MPH (11 knots; 5.7 m/s)
Visibility: 6 or more miles (10+ km)
Ceiling: at least 12,000 feet AGL
Clouds: few clouds at 1300 feet AGL
few clouds at 2000 feet AGL
Weather: VCSH  (showers in vicinity)

METAR text: EDDH 261350Z 29012KT 9999 VCSH FEW013 FEW020CB SCT040 05/01 Q0994 TEMPO SHRAGS
Conditions at: EDDH (HAMBURG/FUHLSBUT, DE) observed 1350 UTC 26 February 2020
Temperature: 5.0°C (41°F)
Dewpoint: 1.0°C (34°F) [RH = 75%]
Pressure (altimeter): 29.35 inches Hg (994.0 mb)
Winds: from the WNW (290 degrees) at 14 MPH (12 knots; 6.2 m/s)
Visibility: 6 or more miles (10+ km)
Ceiling: at least 12,000 feet AGL
Clouds: few clouds at 1300 feet AGL
few clouds at 2000 feet AGL
scattered clouds at 4000 feet AGL
Weather: VCSH  (showers in vicinity)

METAR text: EDDH 261320Z 29012KT 260V320 9999 -SHRA FEW010 FEW020CB SCT030 05/01 Q0994 TEMPO SHRAGS
Conditions at: EDDH (HAMBURG/FUHLSBUT, DE) observed 1320 UTC 26 February 2020
Temperature: 5.0°C (41°F)
Dewpoint: 1.0°C (34°F) [RH = 75%]
Pressure (altimeter): 29.35 inches Hg (994.0 mb)
Winds: from the WNW (290 degrees) at 14 MPH (12 knots; 6.2 m/s)
Visibility: 6 or more miles (10+ km)
Ceiling: at least 12,000 feet AGL
Clouds: few clouds at 1000 feet AGL
few clouds at 2000 feet AGL
scattered clouds at 3000 feet AGL
Weather: -SHRA  (light rain showers)

METAR text: EDDH 261250Z 28009KT 9999 VCSH FEW011 FEW020CB SCT030 04/01 Q0993 RESHGS TEMPO SHRAGS
Conditions at: EDDH (HAMBURG/FUHLSBUT, DE) observed 1250 UTC 26 February 2020
Temperature: 4.0°C (39°F)
Dewpoint: 1.0°C (34°F) [RH = 81%]
Pressure (altimeter): 29.32 inches Hg (993.0 mb)
Winds: from the W (280 degrees) at 10 MPH (9 knots; 4.6 m/s)
Visibility: 6 or more miles (10+ km)
Ceiling: at least 12,000 feet AGL
Clouds: few clouds at 1100 feet AGL
few clouds at 2000 feet AGL
scattered clouds at 3000 feet AGL
Weather: VCSH  (showers in vicinity)

METAR text: EDDH 261220Z 27013KT 9999 VCSH SCT020CB 06/01 Q0993 TEMPO SHRA BKN014
Conditions at: EDDH (HAMBURG/FUHLSBUT, DE) observed 1220 UTC 26 February 2020
Temperature: 6.0°C (43°F)
Dewpoint: 1.0°C (34°F) [RH = 70%]
Pressure (altimeter): 29.32 inches Hg (993.0 mb)
Winds: from the W (270 degrees) at 15 MPH (13 knots; 6.7 m/s)
Visibility: 6 or more miles (10+ km)
Ceiling: at least 12,000 feet AGL
Clouds: scattered clouds at 2000 feet AGL
Weather: VCSH  (showers in vicinity)

METAR text: EDDH 261150Z 27010KT 250V310 9999 SCT015TCU 05/01 Q0993 TEMPO BKN014
Conditions at: EDDH (HAMBURG/FUHLSBUT, DE) observed 1150 UTC 26 February 2020
Temperature: 5.0°C (41°F)
Dewpoint: 1.0°C (34°F) [RH = 75%]
Pressure (altimeter): 29.32 inches Hg (993.0 mb)
Winds: from the W (270 degrees) at 12 MPH (10 knots; 5.1 m/s)
Visibility: 6 or more miles (10+ km)
Ceiling: at least 12,000 feet AGL
Clouds: scattered clouds at 1500 feet AGL
Weather: no significant weather observed at this time

METAR text: EDDH 261120Z 27008KT 9999 SCT014 BKN035 05/01 Q0992 TEMPO BKN014
Conditions at: EDDH (HAMBURG/FUHLSBUT, DE) observed 1120 UTC 26 February 2020
Temperature: 5.0°C (41°F)
Dewpoint: 1.0°C (34°F) [RH = 75%]
Pressure (altimeter): 29.29 inches Hg (992.0 mb)
Winds: from the W (270 degrees) at 9 MPH (8 knots; 4.1 m/s)
Visibility: 6 or more miles (10+ km)
Ceiling: 3500 feet AGL
Clouds: scattered clouds at 1400 feet AGL
broken clouds at 3500 feet AGL
Weather: no significant weather observed at this time

METAR text: EDDH 261050Z 28008KT 230V310 9999 BKN011 BKN020 04/01 Q0992 TEMPO BKN015
Conditions at: EDDH (HAMBURG/FUHLSBUT, DE) observed 1050 UTC 26 February 2020
Temperature: 4.0°C (39°F)
Dewpoint: 1.0°C (34°F) [RH = 81%]
Pressure (altimeter): 29.29 inches Hg (992.0 mb)
Winds: from the W (280 degrees) at 9 MPH (8 knots; 4.1 m/s)
Visibility: 6 or more miles (10+ km)
Ceiling: 1100 feet AGL
Clouds: broken clouds at 1100 feet AGL
broken clouds at 2000 feet AGL
Weather: no significant weather observed at this time

METAR text: EDDH 261020Z 28007KT 240V310 9999 BKN009 04/02 Q0992 TEMPO SCT010
Conditions at: EDDH (HAMBURG/FUHLSBUT, DE) observed 1020 UTC 26 February 2020
Temperature: 4.0°C (39°F)
Dewpoint: 2.0°C (36°F) [RH = 87%]
Pressure (altimeter): 29.29 inches Hg (992.0 mb)
Winds: from the W (280 degrees) at 8 MPH (7 knots; 3.6 m/s)
Visibility: 6 or more miles (10+ km)
Ceiling: 900 feet AGL
Clouds: broken clouds at 900 feet AGL
Weather: no significant weather observed at this time

METAR text: EDDH 260950Z 26007KT 9999 BKN007 03/01 Q0992 TEMPO SCT010
Conditions at: EDDH (HAMBURG/FUHLSBUT, DE) observed 0950 UTC 26 February 2020
Temperature: 3.0°C (37°F)
Dewpoint: 1.0°C (34°F) [RH = 87%]
Pressure (altimeter): 29.29 inches Hg (992.0 mb)
Winds: from the W (260 degrees) at 8 MPH (7 knots; 3.6 m/s)
Visibility: 6 or more miles (10+ km)
Ceiling: 700 feet AGL
Clouds: broken clouds at 700 feet AGL
Weather: no significant weather observed at this time

METAR text: EDDH 260920Z 26008KT 9999 BKN006 03/01 Q0991 TEMPO SCT010
Conditions at: EDDH (HAMBURG/FUHLSBUT, DE) observed 0920 UTC 26 February 2020
Temperature: 3.0°C (37°F)
Dewpoint: 1.0°C (34°F) [RH = 87%]
Pressure (altimeter): 29.26 inches Hg (991.0 mb)
Winds: from the W (260 degrees) at 9 MPH (8 knots; 4.1 m/s)
Visibility: 6 or more miles (10+ km)
Ceiling: 600 feet AGL
Clouds: broken clouds at 600 feet AGL
Weather: no significant weather observed at this time

METAR text: EDDH 260850Z 26008KT 240V310 7000 BKN006 03/01 Q0991 TEMPO SCT010
Conditions at: EDDH (HAMBURG/FUHLSBUT, DE) observed 0850 UTC 26 February 2020
Temperature: 3.0°C (37°F)
Dewpoint: 1.0°C (34°F) [RH = 87%]
Pressure (altimeter): 29.26 inches Hg (991.0 mb)
Winds: from the W (260 degrees) at 9 MPH (8 knots; 4.1 m/s)
Visibility: 4 miles ( 7 km)
Ceiling: 600 feet AGL
Clouds: broken clouds at 600 feet AGL
Weather: no significant weather observed at this time

METAR text: EDDH 260820Z 26007KT 230V290 7000 BKN005 02/01 Q0991 TEMPO 4500 BR SCT010
Conditions at: EDDH (HAMBURG/FUHLSBUT, DE) observed 0820 UTC 26 February 2020
Temperature: 2.0°C (36°F)
Dewpoint: 1.0°C (34°F) [RH = 93%]
Pressure (altimeter): 29.26 inches Hg (991.0 mb)
Winds: from the W (260 degrees) at 8 MPH (7 knots; 3.6 m/s)
Visibility: 4 miles ( 7 km)
Ceiling: 500 feet AGL
Clouds: broken clouds at 500 feet AGL
Weather: no significant weather observed at this time

METAR text: EDDH 260750Z 24005KT 6000 SCT005 02/01 Q0991 TEMPO BKN005
Conditions at: EDDH (HAMBURG/FUHLSBUT, DE) observed 0750 UTC 26 February 2020
Temperature: 2.0°C (36°F)
Dewpoint: 1.0°C (34°F) [RH = 93%]
Pressure (altimeter): 29.26 inches Hg (991.0 mb)
Winds: from the WSW (240 degrees) at 6 MPH (5 knots; 2.6 m/s)
Visibility: 4 miles ( 6 km)
Ceiling: at least 12,000 feet AGL
Clouds: scattered clouds at 500 feet AGL
Weather: no significant weather observed at this time

METAR text: EDDH 260720Z 21003KT 6000 BKN006 01/M00 Q0990 TEMPO SCT006
Conditions at: EDDH (HAMBURG/FUHLSBUT, DE) observed 0720 UTC 26 February 2020
Temperature: 1.0°C (34°F)
Dewpoint: 0.0°C (32°F) [RH = 93%]
Pressure (altimeter): 29.23 inches Hg (990.0 mb)
Winds: from the SSW (210 degrees) at 3 MPH (3 knots; 1.5 m/s)
Visibility: 4 miles ( 6 km)
Ceiling: 600 feet AGL
Clouds: broken clouds at 600 feet AGL
Weather: no significant weather observed at this time

METAR text: EDDH 260650Z 26003KT 240V300 6000 SCT007 01/00 Q0990 TEMPO BKN007
Conditions at: EDDH (HAMBURG/FUHLSBUT, DE) observed 0650 UTC 26 February 2020
Temperature: 1.0°C (34°F)
Dewpoint: 0.0°C (32°F) [RH = 93%]
Pressure (altimeter): 29.23 inches Hg (990.0 mb)
Winds: from the W (260 degrees) at 3 MPH (3 knots; 1.5 m/s)
Visibility: 4 miles ( 6 km)
Ceiling: at least 12,000 feet AGL
Clouds: scattered clouds at 700 feet AGL
Weather: no significant weather observed at this time

METAR text: EDDH 260620Z 26004KT 9000 SCT008 01/M00 Q0990 TEMPO BKN008
Conditions at: EDDH (HAMBURG/FUHLSBUT, DE) observed 0620 UTC 26 February 2020
Temperature: 1.0°C (34°F)
Dewpoint: 0.0°C (32°F) [RH = 93%]
Pressure (altimeter): 29.23 inches Hg (990.0 mb)
Winds: from the W (260 degrees) at 5 MPH (4 knots; 2.1 m/s)
Visibility: 6 miles ( 9 km)
Ceiling: at least 12,000 feet AGL
Clouds: scattered clouds at 800 feet AGL
Weather: no significant weather observed at this time

METAR text: EDDH 260550Z 22005KT 9000 FEW009 00/M00 Q0990 TEMPO BKN009
Conditions at: EDDH (HAMBURG/FUHLSBUT, DE) observed 0550 UTC 26 February 2020
Temperature: 0.0°C (32°F)
Dewpoint: 0.0°C (32°F) [RH = 100%]
Pressure (altimeter): 29.23 inches Hg (990.0 mb)
Winds: from the SW (220 degrees) at 6 MPH (5 knots; 2.6 m/s)
Visibility: 6 miles ( 9 km)
Ceiling: at least 12,000 feet AGL
Clouds: few clouds at 900 feet AGL
Weather: no significant weather observed at this time

METAR text: EDDH 260520Z 23005KT 9999 FEW022 M00/M01 Q0989 TEMPO BKN008
Conditions at: EDDH (HAMBURG/FUHLSBUT, DE) observed 0520 UTC 26 February 2020
Temperature: 0.0°C (32°F)
Dewpoint: -1.0°C (30°F) [RH = 93%]
Pressure (altimeter): 29.20 inches Hg (989.0 mb)
Winds: from the SW (230 degrees) at 6 MPH (5 knots; 2.6 m/s)
Visibility: 6 or more miles (10+ km)
Ceiling: at least 12,000 feet AGL
Clouds: few clouds at 2200 feet AGL
Weather: no significant weather observed at this time

METAR text: EDDH 260450Z 22006KT 9999 FEW022 01/M00 Q0990 TEMPO BKN008
Conditions at: EDDH (HAMBURG/FUHLSBUT, DE) observed 0450 UTC 26 February 2020
Temperature: 1.0°C (34°F)
Dewpoint: 0.0°C (32°F) [RH = 93%]
Pressure (altimeter): 29.23 inches Hg (990.0 mb)
Winds: from the SW (220 degrees) at 7 MPH (6 knots; 3.1 m/s)
Visibility: 6 or more miles (10+ km)
Ceiling: at least 12,000 feet AGL
Clouds: few clouds at 2200 feet AGL
Weather: no significant weather observed at this time

METAR text: EDDH 260420Z 24004KT 210V270 9999 SCT022 02/00 Q0990 NOSIG
Conditions at: EDDH (HAMBURG/FUHLSBUT, DE) observed 0420 UTC 26 February 2020
Temperature: 2.0°C (36°F)
Dewpoint: 0.0°C (32°F) [RH = 87%]
Pressure (altimeter): 29.23 inches Hg (990.0 mb)
Winds: from the WSW (240 degrees) at 5 MPH (4 knots; 2.1 m/s)
Visibility: 6 or more miles (10+ km)
Ceiling: at least 12,000 feet AGL
Clouds: scattered clouds at 2200 feet AGL
Weather: no significant weather observed at this time

METAR text: EDDH 260350Z 24005KT 9999 BKN025 02/00 Q0990 NOSIG
Conditions at: EDDH (HAMBURG/FUHLSBUT, DE) observed 0350 UTC 26 February 2020
Temperature: 2.0°C (36°F)
Dewpoint: 0.0°C (32°F) [RH = 87%]
Pressure (altimeter): 29.23 inches Hg (990.0 mb)
Winds: from the WSW (240 degrees) at 6 MPH (5 knots; 2.6 m/s)
Visibility: 6 or more miles (10+ km)
Ceiling: 2500 feet AGL
Clouds: broken clouds at 2500 feet AGL
Weather: no significant weather observed at this time

METAR text: EDDH 260320Z 23008KT 9999 BKN020 02/01 Q0990 NOSIG
Conditions at: EDDH (HAMBURG/FUHLSBUT, DE) observed 0320 UTC 26 February 2020
Temperature: 2.0°C (36°F)
Dewpoint: 1.0°C (34°F) [RH = 93%]
Pressure (altimeter): 29.23 inches Hg (990.0 mb)
Winds: from the SW (230 degrees) at 9 MPH (8 knots; 4.1 m/s)
Visibility: 6 or more miles (10+ km)
Ceiling: 2000 feet AGL
Clouds: broken clouds at 2000 feet AGL
Weather: no significant weather observed at this time

METAR text: EDDH 260250Z 23008KT 9999 SCT022 02/00 Q0990 NOSIG
Conditions at: EDDH (HAMBURG/FUHLSBUT, DE) observed 0250 UTC 26 February 2020
Temperature: 2.0°C (36°F)
Dewpoint: 0.0°C (32°F) [RH = 87%]
Pressure (altimeter): 29.23 inches Hg (990.0 mb)
Winds: from the SW (230 degrees) at 9 MPH (8 knots; 4.1 m/s)
Visibility: 6 or more miles (10+ km)
Ceiling: at least 12,000 feet AGL
Clouds: scattered clouds at 2200 feet AGL
Weather: no significant weather observed at this time

METAR text: EDDH 260220Z 22007KT 9999 FEW020 01/M00 Q0990 NOSIG
Conditions at: EDDH (HAMBURG/FUHLSBUT, DE) observed 0220 UTC 26 February 2020
Temperature: 1.0°C (34°F)
Dewpoint: 0.0°C (32°F) [RH = 93%]
Pressure (altimeter): 29.23 inches Hg (990.0 mb)
Winds: from the SW (220 degrees) at 8 MPH (7 knots; 3.6 m/s)
Visibility: 6 or more miles (10+ km)
Ceiling: at least 12,000 feet AGL
Clouds: few clouds at 2000 feet AGL
Weather: no significant weather observed at this time

METAR text: EDDH 260150Z 23005KT 9999 FEW020 01/M00 Q0990 NOSIG
Conditions at: EDDH (HAMBURG/FUHLSBUT, DE) observed 0150 UTC 26 February 2020
Temperature: 1.0°C (34°F)
Dewpoint: 0.0°C (32°F) [RH = 93%]
Pressure (altimeter): 29.23 inches Hg (990.0 mb)
Winds: from the SW (230 degrees) at 6 MPH (5 knots; 2.6 m/s)
Visibility: 6 or more miles (10+ km)
Ceiling: at least 12,000 feet AGL
Clouds: few clouds at 2000 feet AGL
Weather: no significant weather observed at this time

METAR text: EDDH 260120Z 23005KT 9999 FEW020 02/M00 Q0990 NOSIG
Conditions at: EDDH (HAMBURG/FUHLSBUT, DE) observed 0120 UTC 26 February 2020
Temperature: 2.0°C (36°F)
Dewpoint: 0.0°C (32°F) [RH = 87%]
Pressure (altimeter): 29.23 inches Hg (990.0 mb)
Winds: from the SW (230 degrees) at 6 MPH (5 knots; 2.6 m/s)
Visibility: 6 or more miles (10+ km)
Ceiling: at least 12,000 feet AGL
Clouds: few clouds at 2000 feet AGL
Weather: no significant weather observed at this time

METAR text: EDDH 260050Z 25008KT 220V280 9999 BKN020 03/00 Q0990 NOSIG
Conditions at: EDDH (HAMBURG/FUHLSBUT, DE) observed 0050 UTC 26 February 2020
Temperature: 3.0°C (37°F)
Dewpoint: 0.0°C (32°F) [RH = 81%]
Pressure (altimeter): 29.23 inches Hg (990.0 mb)
Winds: from the WSW (250 degrees) at 9 MPH (8 knots; 4.1 m/s)
Visibility: 6 or more miles (10+ km)
Ceiling: 2000 feet AGL
Clouds: broken clouds at 2000 feet AGL
Weather: no significant weather observed at this time

METAR text: EDDH 260020Z 25008KT 9999 BKN020 03/01 Q0990 NOSIG
Conditions at: EDDH (HAMBURG/FUHLSBUT, DE) observed 0020 UTC 26 February 2020
Temperature: 3.0°C (37°F)
Dewpoint: 1.0°C (34°F) [RH = 87%]
Pressure (altimeter): 29.23 inches Hg (990.0 mb)
Winds: from the WSW (250 degrees) at 9 MPH (8 knots; 4.1 m/s)
Visibility: 6 or more miles (10+ km)
Ceiling: 2000 feet AGL
Clouds: broken clouds at 2000 feet AGL
Weather: no significant weather observed at this time

METAR text: EDDH 252350Z 24009KT 9999 FEW019 02/00 Q0990 NOSIG
Conditions at: EDDH (HAMBURG/FUHLSBUT, DE) observed 2350 UTC 25 February 2020
Temperature: 2.0°C (36°F)
Dewpoint: 0.0°C (32°F) [RH = 87%]
Pressure (altimeter): 29.23 inches Hg (990.0 mb)
Winds: from the WSW (240 degrees) at 10 MPH (9 knots; 4.6 m/s)
Visibility: 6 or more miles (10+ km)
Ceiling: at least 12,000 feet AGL
Clouds: few clouds at 1900 feet AGL
Weather: no significant weather observed at this time

METAR text: EDDH 252320Z 24008KT 9999 FEW016 02/00 Q0990 NOSIG
Conditions at: EDDH (HAMBURG/FUHLSBUT, DE) observed 2320 UTC 25 February 2020
Temperature: 2.0°C (36°F)
Dewpoint: 0.0°C (32°F) [RH = 87%]
Pressure (altimeter): 29.23 inches Hg (990.0 mb)
Winds: from the WSW (240 degrees) at 9 MPH (8 knots; 4.1 m/s)
Visibility: 6 or more miles (10+ km)
Ceiling: at least 12,000 feet AGL
Clouds: few clouds at 1600 feet AGL
Weather: no significant weather observed at this time

METAR text: EDDH 252250Z 24007KT 9999 FEW016 02/00 Q0991 NOSIG
Conditions at: EDDH (HAMBURG/FUHLSBUT, DE) observed 2250 UTC 25 February 2020
Temperature: 2.0°C (36°F)
Dewpoint: 0.0°C (32°F) [RH = 87%]
Pressure (altimeter): 29.26 inches Hg (991.0 mb)
Winds: from the WSW (240 degrees) at 8 MPH (7 knots; 3.6 m/s)
Visibility: 6 or more miles (10+ km)
Ceiling: at least 12,000 feet AGL
Clouds: few clouds at 1600 feet AGL
Weather: no significant weather observed at this time

METAR text: EDDH 252220Z 24006KT 9999 FEW016 SCT046 03/00 Q0991 NOSIG
Conditions at: EDDH (HAMBURG/FUHLSBUT, DE) observed 2220 UTC 25 February 2020
Temperature: 3.0°C (37°F)
Dewpoint: 0.0°C (32°F) [RH = 81%]
Pressure (altimeter): 29.26 inches Hg (991.0 mb)
Winds: from the WSW (240 degrees) at 7 MPH (6 knots; 3.1 m/s)
Visibility: 6 or more miles (10+ km)
Ceiling: at least 12,000 feet AGL
Clouds: few clouds at 1600 feet AGL
scattered clouds at 4600 feet AGL
Weather: no significant weather observed at this time

METAR text: EDDH 252150Z 24008KT 9999 FEW016 SCT046 03/00 Q0991 NOSIG
Conditions at: EDDH (HAMBURG/FUHLSBUT, DE) observed 2150 UTC 25 February 2020
Temperature: 3.0°C (37°F)
Dewpoint: 0.0°C (32°F) [RH = 81%]
Pressure (altimeter): 29.26 inches Hg (991.0 mb)
Winds: from the WSW (240 degrees) at 9 MPH (8 knots; 4.1 m/s)
Visibility: 6 or more miles (10+ km)
Ceiling: at least 12,000 feet AGL
Clouds: few clouds at 1600 feet AGL
scattered clouds at 4600 feet AGL
Weather: no significant weather observed at this time

METAR text: EDDH 252120Z 24008KT 210V270 9999 FEW016 03/00 Q0991 NOSIG
Conditions at: EDDH (HAMBURG/FUHLSBUT, DE) observed 2120 UTC 25 February 2020
Temperature: 3.0°C (37°F)
Dewpoint: 0.0°C (32°F) [RH = 81%]
Pressure (altimeter): 29.26 inches Hg (991.0 mb)
Winds: from the WSW (240 degrees) at 9 MPH (8 knots; 4.1 m/s)
Visibility: 6 or more miles (10+ km)
Ceiling: at least 12,000 feet AGL
Clouds: few clouds at 1600 feet AGL
Weather: no significant weather observed at this time

METAR text: EDDH 252050Z 24008KT 210V270 9999 FEW016 03/00 Q0991 TEMPO 27015G25KT
Conditions at: EDDH (HAMBURG/FUHLSBUT, DE) observed 2050 UTC 25 February 2020
Temperature: 3.0°C (37°F)
Dewpoint: 0.0°C (32°F) [RH = 81%]
Pressure (altimeter): 29.26 inches Hg (991.0 mb)
Winds: from the WSW (240 degrees) at 9 MPH (8 knots; 4.1 m/s)
Visibility: 6 or more miles (10+ km)
Ceiling: at least 12,000 feet AGL
Clouds: few clouds at 1600 feet AGL
Weather: no significant weather observed at this time

Forecast for: EDDH (HAMBURG/FUHLSBUT, DE)
Text: TAF EDDH 270500Z 2706/2812 24008KT 9999 BKN008
Forecast period: 0600 to 0700 UTC 27 February 2020
Forecast type: FROM: standard forecast or significant change
Winds: from the WSW (240 degrees) at 9 MPH (8 knots; 4.1 m/s)
Visibility: 6 or more miles 10+ km)
Ceiling: 800 feet AGL
Clouds: broken clouds at 800 feet AGL
Weather: no significant weather forecast for this period
Text: BECMG 2707/2709 BKN020
Forecast period: 0700 to 1500 UTC 27 February 2020
Forecast type: BECOMING: Conditions expected to become as follows by 0900 UTC 27 February 2020
Winds: from the WSW (240 degrees) at 9 MPH (8 knots; 4.1 m/s)
Visibility: 6 or more miles 10+ km)
Ceiling: 2000 feet AGL
Clouds: broken clouds at 2000 feet AGL
Weather: no significant weather forecast for this period
Text: BECMG 2715/2717 24003KT
Forecast period: 1500 UTC 27 February 2020 to 0000 UTC 28 February 2020
Forecast type: BECOMING: Conditions expected to become as follows by 1700 UTC 27 February 2020
Winds: from the WSW (240 degrees) at 3 MPH (3 knots; 1.5 m/s)
Visibility: 6 or more miles 10+ km)
Ceiling: 2000 feet AGL
Clouds: broken clouds at 2000 feet AGL
Weather: no significant weather forecast for this period
Text: TEMPO 2723/2802 2500 -SNRA BKN008
Forecast period: 2300 UTC 27 February 2020 to 0200 UTC 28 February 2020
Forecast type: TEMPORARY: The following changes expected for less than half the time period
Visibility: 1.55 miles (2.49 km)
Ceiling: 800 feet AGL
Clouds: broken clouds at 800 feet AGL
Weather: -SN -RA  (light snow, light rain)
Text: PROB30
Forecast period: 2300 UTC 27 February 2020 to 0100 UTC 28 February 2020
Forecast type: TEMPORARY: The following changes expected for less than half the time period
Visibility: 0.50 miles (0.80 km)
Ceiling: 300 feet AGL
Clouds: broken clouds at 300 feet AGL
Weather: SN  (moderate snow)
Text: TEMPO 2723/2801 0800 SN BKN003
Forecast period: 0000 to 0800 UTC 28 February 2020
Forecast type: BECOMING: Conditions expected to become as follows by 0200 UTC 28 February 2020
Winds: from the W (270 degrees) at 10 MPH (9 knots; 4.6 m/s)
Visibility: 6 or more miles 10+ km)
Ceiling: 2000 feet AGL
Clouds: broken clouds at 2000 feet AGL
Weather: no significant weather forecast for this period
Text: BECMG 2800/2802 27009KT
Forecast period: 0200 to 0500 UTC 28 February 2020
Forecast type: TEMPORARY: The following changes expected for less than half the time period
Visibility: missing
Ceiling: 1200 feet AGL
Clouds: broken clouds at 1200 feet AGL
Weather: no significant weather forecast for this period
Text: PROB30
Forecast period: 0800 to 1200 UTC 28 February 2020
Forecast type: BECOMING: Conditions expected to become as follows by 1000 UTC 28 February 2020
Winds: from the W (270 degrees) at 17 MPH (15 knots; 7.7 m/s)
Visibility: 6 or more miles 10+ km)
Ceiling: 2000 feet AGL
Clouds: broken clouds at 2000 feet AGL
Weather: no significant weather forecast for this period
Text: TEMPO 2802/2805 BKN012
Forecast period: 0800 to 1000 UTC 28 February 2020
Forecast type: TEMPORARY: The following changes expected for less than half the time period
Visibility: missing
Ceiling: 1000 feet AGL
Clouds: broken clouds at 1000 feet AGL
Weather: no significant weather forecast for this period
Text: BECMG 2808/2810 27015KT
Forecast period: 1000 to 1200 UTC 28 February 2020
Forecast type: TEMPORARY: The following changes expected for less than half the time period
Winds: from the W (270 degrees) at 17 MPH (15 knots; 7.7 m/s)
gusting to 29 MPH (25 knots; 12.9 m/s)
Visibility: missing
Ceiling: unknown
Clouds: missing
Weather: no significant weather forecast for this period